sensor_id;sensor_type;location;lat;lon;timestamp;P1;durP1;ratioP1;P2;durP2;ratioP2
13432;SDS011;6789;47.678;9.158;2023-02-28T00:03:05;7.93;;;4.43;;
13432;SDS011;6789;47.678;9.158;2023-02-28T00:07:57;6.50;;;4.30;;
13432;SDS011;6789;47.678;9.158;2023-02-28T00:12:52;6.47;;;4.23;;
13432;SDS011;6789;47.678;9.158;2023-02-28T00:18:21;6.57;;;4.27;;
13432;SDS011;6789;47.678;9.158;2023-02-28T00:23:37;6.60;;;5.00;;
13432;SDS011;6789;47.678;9.158;2023-02-28T00:28:43;6.10;;;4.00;;
13432;SDS011;6789;47.678;9.158;2023-02-28T00:33:50;6.17;;;4.37;;
13432;SDS011;6789;47.678;9.158;2023-02-28T00:38:57;6.27;;;4.60;;
13432;SDS011;6789;47.678;9.158;2023-02-28T00:44:04;7.13;;;4.20;;
13432;SDS011;6789;47.678;9.158;2023-02-28T00:49:10;7.60;;;4.37;;
13432;SDS011;6789;47.678;9.158;2023-02-28T00:54:19;6.40;;;3.97;;
13432;SDS011;6789;47.678;9.158;2023-02-28T00:59:37;7.40;;;4.43;;
13432;SDS011;6789;47.678;9.158;2023-02-28T01:04:43;7.37;;;4.53;;
13432;SDS011;6789;47.678;9.158;2023-02-28T01:09:49;7.60;;;4.27;;
13432;SDS011;6789;47.678;9.158;2023-02-28T01:14:55;6.07;;;4.60;;
13432;SDS011;6789;47.678;9.158;2023-02-28T01:19:47;6.37;;;4.33;;
13432;SDS011;6789;47.678;9.158;2023-02-28T01:24:55;9.13;;;4.10;;
13432;SDS011;6789;47.678;9.158;2023-02-28T01:30:02;7.50;;;4.50;;
13432;SDS011;6789;47.678;9.158;2023-02-28T01:35:13;6.70;;;4.73;;
13432;SDS011;6789;47.678;9.158;2023-02-28T01:40:20;7.50;;;4.37;;
13432;SDS011;6789;47.678;9.158;2023-02-28T01:45:28;5.90;;;4.10;;
13432;SDS011;6789;47.678;9.158;2023-02-28T01:50:56;8.03;;;4.50;;
13432;SDS011;6789;47.678;9.158;2023-02-28T01:56:20;6.33;;;4.60;;
13432;SDS011;6789;47.678;9.158;2023-02-28T02:01:37;5.73;;;4.33;;
13432;SDS011;6789;47.678;9.158;2023-02-28T02:06:44;9.90;;;4.47;;
13432;SDS011;6789;47.678;9.158;2023-02-28T02:11:56;5.23;;;3.80;;
13432;SDS011;6789;47.678;9.158;2023-02-28T02:17:09;6.07;;;4.00;;
13432;SDS011;6789;47.678;9.158;2023-02-28T02:38:58;5.60;;;4.00;;
13432;SDS011;6789;47.678;9.158;2023-02-28T02:44:13;5.43;;;3.77;;
13432;SDS011;6789;47.678;9.158;2023-02-28T02:49:13;5.73;;;4.10;;
13432;SDS011;6789;47.678;9.158;2023-02-28T02:54:16;6.27;;;3.63;;
13432;SDS011;6789;47.678;9.158;2023-02-28T02:59:15;7.30;;;4.00;;
13432;SDS011;6789;47.678;9.158;2023-02-28T03:04:16;5.37;;;3.93;;
13432;SDS011;6789;47.678;9.158;2023-02-28T03:09:12;5.77;;;3.63;;
13432;SDS011;6789;47.678;9.158;2023-02-28T03:29:58;4.77;;;3.47;;
13432;SDS011;6789;47.678;9.158;2023-02-28T03:35:14;6.43;;;3.93;;
13432;SDS011;6789;47.678;9.158;2023-02-28T03:40:14;8.80;;;3.77;;
13432;SDS011;6789;47.678;9.158;2023-02-28T03:45:16;5.47;;;3.53;;
13432;SDS011;6789;47.678;9.158;2023-02-28T03:50:27;5.07;;;3.80;;
13432;SDS011;6789;47.678;9.158;2023-02-28T03:55:39;6.77;;;3.90;;
13432;SDS011;6789;47.678;9.158;2023-02-28T04:00:49;4.97;;;4.10;;
13432;SDS011;6789;47.678;9.158;2023-02-28T04:05:51;7.07;;;4.30;;
13432;SDS011;6789;47.678;9.158;2023-02-28T04:10:46;5.17;;;3.87;;
13432;SDS011;6789;47.678;9.158;2023-02-28T04:15:46;6.07;;;4.00;;
13432;SDS011;6789;47.678;9.158;2023-02-28T04:20:38;6.50;;;3.80;;
13432;SDS011;6789;47.678;9.158;2023-02-28T04:25:29;5.27;;;4.03;;
13432;SDS011;6789;47.678;9.158;2023-02-28T04:30:21;5.90;;;3.90;;
13432;SDS011;6789;47.678;9.158;2023-02-28T04:35:13;6.30;;;3.77;;
13432;SDS011;6789;47.678;9.158;2023-02-28T04:40:05;6.40;;;4.33;;
13432;SDS011;6789;47.678;9.158;2023-02-28T04:44:58;5.93;;;3.87;;
13432;SDS011;6789;47.678;9.158;2023-02-28T04:49:49;6.33;;;3.93;;
13432;SDS011;6789;47.678;9.158;2023-02-28T04:54:41;7.57;;;4.80;;
13432;SDS011;6789;47.678;9.158;2023-02-28T04:59:33;7.93;;;4.60;;
13432;SDS011;6789;47.678;9.158;2023-02-28T05:04:25;7.97;;;5.67;;
13432;SDS011;6789;47.678;9.158;2023-02-28T05:09:31;6.90;;;4.83;;
13432;SDS011;6789;47.678;9.158;2023-02-28T05:14:40;7.90;;;4.67;;
13432;SDS011;6789;47.678;9.158;2023-02-28T05:19:46;7.37;;;5.10;;
13432;SDS011;6789;47.678;9.158;2023-02-28T05:24:45;9.43;;;5.67;;
13432;SDS011;6789;47.678;9.158;2023-02-28T05:29:51;7.27;;;4.53;;
13432;SDS011;6789;47.678;9.158;2023-02-28T05:34:57;6.50;;;4.90;;
13432;SDS011;6789;47.678;9.158;2023-02-28T05:40:03;9.27;;;5.20;;
13432;SDS011;6789;47.678;9.158;2023-02-28T05:45:12;7.93;;;5.13;;
13432;SDS011;6789;47.678;9.158;2023-02-28T05:50:07;8.13;;;5.37;;
13432;SDS011;6789;47.678;9.158;2023-02-28T05:55:15;7.03;;;5.07;;
13432;SDS011;6789;47.678;9.158;2023-02-28T06:00:21;7.07;;;4.80;;
13432;SDS011;6789;47.678;9.158;2023-02-28T06:05:15;6.67;;;4.90;;
13432;SDS011;6789;47.678;9.158;2023-02-28T06:10:18;8.20;;;5.00;;
13432;SDS011;6789;47.678;9.158;2023-02-28T06:15:25;7.53;;;5.90;;
13432;SDS011;6789;47.678;9.158;2023-02-28T06:20:41;8.70;;;5.97;;
13432;SDS011;6789;47.678;9.158;2023-02-28T06:26:19;8.13;;;5.07;;
13432;SDS011;6789;47.678;9.158;2023-02-28T06:31:30;7.00;;;4.60;;
13432;SDS011;6789;47.678;9.158;2023-02-28T06:36:37;8.00;;;5.50;;
13432;SDS011;6789;47.678;9.158;2023-02-28T06:41:39;12.77;;;5.90;;
13432;SDS011;6789;47.678;9.158;2023-02-28T06:46:46;11.20;;;5.53;;
13432;SDS011;6789;47.678;9.158;2023-02-28T06:51:44;7.23;;;5.17;;
13432;SDS011;6789;47.678;9.158;2023-02-28T06:56:50;8.50;;;5.30;;
13432;SDS011;6789;47.678;9.158;2023-02-28T07:01:59;8.67;;;5.27;;
13432;SDS011;6789;47.678;9.158;2023-02-28T07:07:15;8.83;;;5.53;;
13432;SDS011;6789;47.678;9.158;2023-02-28T07:12:23;8.37;;;5.50;;
13432;SDS011;6789;47.678;9.158;2023-02-28T07:17:29;11.83;;;6.50;;
13432;SDS011;6789;47.678;9.158;2023-02-28T07:22:35;13.53;;;6.17;;
13432;SDS011;6789;47.678;9.158;2023-02-28T07:27:41;9.80;;;5.93;;
13432;SDS011;6789;47.678;9.158;2023-02-28T07:32:47;15.87;;;6.17;;
13432;SDS011;6789;47.678;9.158;2023-02-28T07:37:53;9.17;;;5.43;;
13432;SDS011;6789;47.678;9.158;2023-02-28T07:43:00;9.20;;;6.00;;
13432;SDS011;6789;47.678;9.158;2023-02-28T07:48:08;9.10;;;6.20;;
13432;SDS011;6789;47.678;9.158;2023-02-28T07:53:15;9.20;;;5.23;;
13432;SDS011;6789;47.678;9.158;2023-02-28T07:58:20;10.43;;;5.60;;
13432;SDS011;6789;47.678;9.158;2023-02-28T08:03:26;11.27;;;5.77;;
13432;SDS011;6789;47.678;9.158;2023-02-28T08:08:34;14.40;;;5.70;;
13432;SDS011;6789;47.678;9.158;2023-02-28T08:13:40;7.80;;;5.53;;
13432;SDS011;6789;47.678;9.158;2023-02-28T08:18:53;9.83;;;6.23;;
13432;SDS011;6789;47.678;9.158;2023-02-28T08:24:02;9.37;;;5.73;;
13432;SDS011;6789;47.678;9.158;2023-02-28T08:29:14;14.13;;;6.57;;
13432;SDS011;6789;47.678;9.158;2023-02-28T08:34:48;9.53;;;5.73;;
13432;SDS011;6789;47.678;9.158;2023-02-28T08:40:15;9.03;;;5.83;;
13432;SDS011;6789;47.678;9.158;2023-02-28T08:45:24;9.60;;;6.30;;
13432;SDS011;6789;47.678;9.158;2023-02-28T08:50:25;8.30;;;5.07;;
13432;SDS011;6789;47.678;9.158;2023-02-28T08:55:18;11.93;;;5.90;;
13432;SDS011;6789;47.678;9.158;2023-02-28T09:00:24;8.17;;;6.17;;
13432;SDS011;6789;47.678;9.158;2023-02-28T09:05:16;9.83;;;6.07;;
13432;SDS011;6789;47.678;9.158;2023-02-28T09:10:10;12.70;;;6.73;;
13432;SDS011;6789;47.678;9.158;2023-02-28T09:15:16;9.10;;;5.60;;
13432;SDS011;6789;47.678;9.158;2023-02-28T09:20:23;9.23;;;6.37;;
13432;SDS011;6789;47.678;9.158;2023-02-28T09:25:19;9.27;;;5.67;;
13432;SDS011;6789;47.678;9.158;2023-02-28T09:30:18;9.47;;;5.90;;
13432;SDS011;6789;47.678;9.158;2023-02-28T09:35:24;10.17;;;5.60;;
13432;SDS011;6789;47.678;9.158;2023-02-28T09:40:19;9.43;;;5.40;;
13432;SDS011;6789;47.678;9.158;2023-02-28T09:45:23;9.80;;;5.80;;
13432;SDS011;6789;47.678;9.158;2023-02-28T09:50:46;11.63;;;6.27;;
13432;SDS011;6789;47.678;9.158;2023-02-28T09:55:46;12.10;;;7.40;;
13432;SDS011;6789;47.678;9.158;2023-02-28T10:01:03;11.17;;;6.30;;
13432;SDS011;6789;47.678;9.158;2023-02-28T10:06:48;10.30;;;5.80;;
13432;SDS011;6789;47.678;9.158;2023-02-28T10:11:43;9.47;;;6.10;;
13432;SDS011;6789;47.678;9.158;2023-02-28T10:16:53;16.03;;;6.43;;
13432;SDS011;6789;47.678;9.158;2023-02-28T10:27:22;10.63;;;6.30;;
13432;SDS011;6789;47.678;9.158;2023-02-28T10:32:38;10.73;;;6.30;;
13432;SDS011;6789;47.678;9.158;2023-02-28T10:37:52;11.37;;;6.47;;
13432;SDS011;6789;47.678;9.158;2023-02-28T10:43:03;11.87;;;6.37;;
13432;SDS011;6789;47.678;9.158;2023-02-28T10:58:53;11.03;;;6.33;;
13432;SDS011;6789;47.678;9.158;2023-02-28T11:04:02;10.30;;;7.13;;
13432;SDS011;6789;47.678;9.158;2023-02-28T11:09:19;10.17;;;6.73;;
13432;SDS011;6789;47.678;9.158;2023-02-28T11:14:26;11.73;;;6.10;;
13432;SDS011;6789;47.678;9.158;2023-02-28T11:19:45;11.70;;;6.93;;
13432;SDS011;6789;47.678;9.158;2023-02-28T11:25:00;9.73;;;6.30;;
13432;SDS011;6789;47.678;9.158;2023-02-28T11:35:38;11.50;;;6.93;;
13432;SDS011;6789;47.678;9.158;2023-02-28T11:40:52;12.80;;;7.50;;
13432;SDS011;6789;47.678;9.158;2023-02-28T11:51:59;10.67;;;6.57;;
13432;SDS011;6789;47.678;9.158;2023-02-28T12:03:15;10.53;;;7.17;;
13432;SDS011;6789;47.678;9.158;2023-02-28T12:35:33;12.63;;;8.43;;
13432;SDS011;6789;47.678;9.158;2023-02-28T12:40:56;14.03;;;9.03;;
13432;SDS011;6789;47.678;9.158;2023-02-28T12:46:37;16.23;;;9.23;;
13432;SDS011;6789;47.678;9.158;2023-02-28T12:51:49;17.43;;;9.70;;
13432;SDS011;6789;47.678;9.158;2023-02-28T12:57:15;13.17;;;8.30;;
13432;SDS011;6789;47.678;9.158;2023-02-28T13:08:01;12.27;;;8.53;;
13432;SDS011;6789;47.678;9.158;2023-02-28T13:13:19;14.27;;;8.60;;
13432;SDS011;6789;47.678;9.158;2023-02-28T13:18:38;13.50;;;7.70;;
13432;SDS011;6789;47.678;9.158;2023-02-28T13:28:59;14.27;;;8.17;;
13432;SDS011;6789;47.678;9.158;2023-02-28T13:34:22;14.43;;;8.47;;
13432;SDS011;6789;47.678;9.158;2023-02-28T13:55:45;17.70;;;8.93;;
13432;SDS011;6789;47.678;9.158;2023-02-28T14:07:25;16.97;;;9.20;;
13432;SDS011;6789;47.678;9.158;2023-02-28T14:18:36;15.63;;;8.80;;
13432;SDS011;6789;47.678;9.158;2023-02-28T14:23:42;13.80;;;8.93;;
13432;SDS011;6789;47.678;9.158;2023-02-28T14:29:30;16.37;;;10.00;;
13432;SDS011;6789;47.678;9.158;2023-02-28T14:41:15;16.23;;;9.73;;
13432;SDS011;6789;47.678;9.158;2023-02-28T14:46:50;16.97;;;9.73;;
13432;SDS011;6789;47.678;9.158;2023-02-28T14:52:03;16.43;;;9.80;;
13432;SDS011;6789;47.678;9.158;2023-02-28T14:57:22;16.30;;;9.63;;
13432;SDS011;6789;47.678;9.158;2023-02-28T15:02:35;15.80;;;10.13;;
13432;SDS011;6789;47.678;9.158;2023-02-28T15:07:36;16.63;;;10.70;;
13432;SDS011;6789;47.678;9.158;2023-02-28T15:12:47;21.73;;;10.23;;
13432;SDS011;6789;47.678;9.158;2023-02-28T15:18:02;21.70;;;11.60;;
13432;SDS011;6789;47.678;9.158;2023-02-28T15:23:45;19.63;;;10.97;;
13432;SDS011;6789;47.678;9.158;2023-02-28T15:29:28;18.00;;;11.00;;
13432;SDS011;6789;47.678;9.158;2023-02-28T15:34:50;14.80;;;9.37;;
13432;SDS011;6789;47.678;9.158;2023-02-28T15:39:57;18.50;;;10.77;;
13432;SDS011;6789;47.678;9.158;2023-02-28T15:45:28;18.27;;;10.03;;
13432;SDS011;6789;47.678;9.158;2023-02-28T15:51:01;18.73;;;11.53;;
13432;SDS011;6789;47.678;9.158;2023-02-28T15:56:31;18.83;;;10.03;;
13432;SDS011;6789;47.678;9.158;2023-02-28T16:02:12;18.00;;;10.20;;
13432;SDS011;6789;47.678;9.158;2023-02-28T16:07:49;19.17;;;11.70;;
13432;SDS011;6789;47.678;9.158;2023-02-28T16:12:56;18.67;;;12.43;;
13432;SDS011;6789;47.678;9.158;2023-02-28T16:18:02;15.97;;;9.50;;
13432;SDS011;6789;47.678;9.158;2023-02-28T16:23:10;18.93;;;10.10;;
13432;SDS011;6789;47.678;9.158;2023-02-28T16:28:20;19.97;;;12.03;;
13432;SDS011;6789;47.678;9.158;2023-02-28T16:33:36;17.10;;;10.43;;
13432;SDS011;6789;47.678;9.158;2023-02-28T16:38:30;19.30;;;10.77;;
13432;SDS011;6789;47.678;9.158;2023-02-28T16:43:36;17.37;;;10.50;;
13432;SDS011;6789;47.678;9.158;2023-02-28T16:48:44;18.47;;;9.93;;
13432;SDS011;6789;47.678;9.158;2023-02-28T16:53:45;19.67;;;10.03;;
13432;SDS011;6789;47.678;9.158;2023-02-28T16:58:51;16.77;;;10.97;;
13432;SDS011;6789;47.678;9.158;2023-02-28T17:04:28;20.90;;;11.03;;
13432;SDS011;6789;47.678;9.158;2023-02-28T17:09:34;19.23;;;11.27;;
13432;SDS011;6789;47.678;9.158;2023-02-28T17:14:34;17.43;;;11.03;;
13432;SDS011;6789;47.678;9.158;2023-02-28T17:19:40;18.80;;;11.00;;
13432;SDS011;6789;47.678;9.158;2023-02-28T17:24:48;18.23;;;10.97;;
13432;SDS011;6789;47.678;9.158;2023-02-28T17:29:54;19.53;;;11.43;;
13432;SDS011;6789;47.678;9.158;2023-02-28T17:35:00;21.70;;;11.50;;
13432;SDS011;6789;47.678;9.158;2023-02-28T17:40:06;17.40;;;10.67;;
13432;SDS011;6789;47.678;9.158;2023-02-28T17:45:21;19.03;;;10.87;;
13432;SDS011;6789;47.678;9.158;2023-02-28T17:50:31;22.13;;;11.87;;
13432;SDS011;6789;47.678;9.158;2023-02-28T17:55:38;21.13;;;10.83;;
13432;SDS011;6789;47.678;9.158;2023-02-28T18:00:44;17.70;;;10.97;;
13432;SDS011;6789;47.678;9.158;2023-02-28T18:05:52;17.97;;;10.77;;
13432;SDS011;6789;47.678;9.158;2023-02-28T18:10:52;20.17;;;11.77;;
13432;SDS011;6789;47.678;9.158;2023-02-28T18:15:58;19.43;;;11.40;;
13432;SDS011;6789;47.678;9.158;2023-02-28T18:21:04;18.93;;;11.60;;
13432;SDS011;6789;47.678;9.158;2023-02-28T18:26:15;20.17;;;12.13;;
13432;SDS011;6789;47.678;9.158;2023-02-28T18:31:24;23.97;;;12.27;;
13432;SDS011;6789;47.678;9.158;2023-02-28T18:36:21;21.03;;;11.57;;
13432;SDS011;6789;47.678;9.158;2023-02-28T18:41:27;22.43;;;12.27;;
13432;SDS011;6789;47.678;9.158;2023-02-28T18:46:33;24.80;;;11.43;;
13432;SDS011;6789;47.678;9.158;2023-02-28T18:51:40;22.17;;;12.20;;
13432;SDS011;6789;47.678;9.158;2023-02-28T18:56:49;19.87;;;12.27;;
13432;SDS011;6789;47.678;9.158;2023-02-28T19:01:54;23.97;;;12.50;;
13432;SDS011;6789;47.678;9.158;2023-02-28T19:06:52;21.90;;;12.47;;
13432;SDS011;6789;47.678;9.158;2023-02-28T19:11:58;22.97;;;12.10;;
13432;SDS011;6789;47.678;9.158;2023-02-28T19:17:04;23.03;;;12.43;;
13432;SDS011;6789;47.678;9.158;2023-02-28T19:22:09;21.17;;;11.87;;
13432;SDS011;6789;47.678;9.158;2023-02-28T19:27:15;22.17;;;12.17;;
13432;SDS011;6789;47.678;9.158;2023-02-28T19:32:24;24.73;;;12.20;;
13432;SDS011;6789;47.678;9.158;2023-02-28T19:37:30;20.57;;;11.20;;
13432;SDS011;6789;47.678;9.158;2023-02-28T19:42:36;22.03;;;12.23;;
13432;SDS011;6789;47.678;9.158;2023-02-28T19:47:42;24.70;;;12.53;;
13432;SDS011;6789;47.678;9.158;2023-02-28T19:52:48;23.60;;;12.03;;
13432;SDS011;6789;47.678;9.158;2023-02-28T19:57:54;19.80;;;11.23;;
13432;SDS011;6789;47.678;9.158;2023-02-28T20:03:00;18.93;;;11.87;;
13432;SDS011;6789;47.678;9.158;2023-02-28T20:07:56;19.13;;;11.40;;
13432;SDS011;6789;47.678;9.158;2023-02-28T20:13:01;20.63;;;11.77;;
13432;SDS011;6789;47.678;9.158;2023-02-28T20:18:07;23.13;;;12.53;;
13432;SDS011;6789;47.678;9.158;2023-02-28T20:23:13;22.27;;;12.50;;
13432;SDS011;6789;47.678;9.158;2023-02-28T20:28:07;22.93;;;12.33;;
13432;SDS011;6789;47.678;9.158;2023-02-28T20:33:16;24.13;;;13.37;;
13432;SDS011;6789;47.678;9.158;2023-02-28T20:38:13;24.63;;;12.43;;
13432;SDS011;6789;47.678;9.158;2023-02-28T20:43:19;27.37;;;14.20;;
13432;SDS011;6789;47.678;9.158;2023-02-28T20:48:14;24.13;;;14.00;;
13432;SDS011;6789;47.678;9.158;2023-02-28T20:53:48;24.10;;;13.87;;
13432;SDS011;6789;47.678;9.158;2023-02-28T20:58:55;26.73;;;13.77;;
13432;SDS011;6789;47.678;9.158;2023-02-28T21:04:03;22.57;;;12.50;;
13432;SDS011;6789;47.678;9.158;2023-02-28T21:09:03;24.47;;;14.17;;
13432;SDS011;6789;47.678;9.158;2023-02-28T21:14:13;24.53;;;14.03;;
13432;SDS011;6789;47.678;9.158;2023-02-28T21:19:21;21.47;;;12.93;;
13432;SDS011;6789;47.678;9.158;2023-02-28T21:24:27;27.27;;;14.07;;
13432;SDS011;6789;47.678;9.158;2023-02-28T21:29:33;23.37;;;13.27;;
13432;SDS011;6789;47.678;9.158;2023-02-28T21:34:39;23.70;;;13.10;;
13432;SDS011;6789;47.678;9.158;2023-02-28T21:39:32;24.83;;;13.07;;
13432;SDS011;6789;47.678;9.158;2023-02-28T21:44:54;22.93;;;12.93;;
13432;SDS011;6789;47.678;9.158;2023-02-28T21:50:02;23.17;;;13.17;;
13432;SDS011;6789;47.678;9.158;2023-02-28T21:55:53;23.23;;;13.53;;
13432;SDS011;6789;47.678;9.158;2023-02-28T22:01:33;24.20;;;13.90;;
13432;SDS011;6789;47.678;9.158;2023-02-28T22:06:29;23.93;;;13.73;;
13432;SDS011;6789;47.678;9.158;2023-02-28T22:11:28;22.20;;;12.97;;
13432;SDS011;6789;47.678;9.158;2023-02-28T22:16:33;25.87;;;14.07;;
13432;SDS011;6789;47.678;9.158;2023-02-28T22:21:41;24.77;;;13.47;;
13432;SDS011;6789;47.678;9.158;2023-02-28T22:26:35;23.90;;;13.67;;
13432;SDS011;6789;47.678;9.158;2023-02-28T22:31:30;24.23;;;13.83;;
13432;SDS011;6789;47.678;9.158;2023-02-28T22:36:26;24.57;;;13.53;;
13432;SDS011;6789;47.678;9.158;2023-02-28T22:41:20;25.13;;;13.50;;
13432;SDS011;6789;47.678;9.158;2023-02-28T22:46:15;24.30;;;13.90;;
13432;SDS011;6789;47.678;9.158;2023-02-28T22:51:18;24.77;;;13.90;;
13432;SDS011;6789;47.678;9.158;2023-02-28T22:56:18;26.10;;;13.47;;
13432;SDS011;6789;47.678;9.158;2023-02-28T23:01:28;24.03;;;14.87;;
13432;SDS011;6789;47.678;9.158;2023-02-28T23:06:31;24.47;;;13.83;;
13432;SDS011;6789;47.678;9.158;2023-02-28T23:11:30;22.73;;;12.93;;
13432;SDS011;6789;47.678;9.158;2023-02-28T23:16:45;20.47;;;12.37;;
13432;SDS011;6789;47.678;9.158;2023-02-28T23:21:52;23.43;;;13.37;;
13432;SDS011;6789;47.678;9.158;2023-02-28T23:26:46;24.97;;;14.37;;
13432;SDS011;6789;47.678;9.158;2023-02-28T23:31:42;26.13;;;13.20;;
13432;SDS011;6789;47.678;9.158;2023-02-28T23:36:43;22.93;;;13.20;;
13432;SDS011;6789;47.678;9.158;2023-02-28T23:41:51;22.00;;;12.47;;
13432;SDS011;6789;47.678;9.158;2023-02-28T23:46:48;25.40;;;13.43;;
13432;SDS011;6789;47.678;9.158;2023-02-28T23:51:51;24.53;;;12.43;;
13432;SDS011;6789;47.678;9.158;2023-02-28T23:56:48;23.57;;;13.10;;
